createdAt,value
2018-02-12T00:00:37.972Z,43.83
2018-02-12T00:03:05.496Z,38.67
2018-02-12T00:05:33.063Z,40.70
2018-02-12T00:08:01.673Z,37.33
2018-02-12T00:10:29.249Z,37.97
2018-02-12T00:12:56.850Z,33.87
2018-02-12T00:15:24.802Z,30.53
2018-02-12T00:17:52.389Z,29.27
2018-02-12T00:20:21.468Z,26.90
2018-02-12T00:22:49.317Z,24.23
2018-02-12T00:25:17.798Z,26.17
2018-02-12T00:27:45.355Z,18.97
2018-02-12T00:30:15.896Z,21.50
2018-02-12T00:32:43.531Z,20.97
2018-02-12T00:35:11.095Z,20.60
2018-02-12T00:37:38.995Z,23.00
2018-02-12T00:40:06.547Z,20.23
2018-02-12T00:42:35.665Z,30.80
2018-02-12T00:45:04.276Z,26.50
2018-02-12T00:47:31.858Z,30.57
2018-02-12T00:49:59.414Z,33.53
2018-02-12T00:52:27.289Z,35.43
2018-02-12T00:54:54.822Z,32.27
2018-02-12T00:57:22.392Z,33.93
2018-02-12T00:59:50.270Z,32.43
2018-02-12T01:02:17.824Z,30.23
2018-02-12T01:04:45.391Z,28.83
2018-02-12T01:07:12.977Z,31.37
2018-02-12T01:09:40.567Z,27.23
2018-02-12T01:12:08.157Z,28.00
2018-02-12T01:14:36.128Z,23.13
2018-02-12T01:17:03.697Z,21.43
2018-02-12T01:19:31.256Z,25.03
2018-02-12T01:21:59.035Z,21.77
2018-02-12T01:24:26.595Z,22.20
2018-02-12T01:26:54.175Z,18.90
2018-02-12T01:29:22.547Z,18.67
2018-02-12T01:31:51.047Z,22.67
2018-02-12T01:34:19.423Z,25.73
2018-02-12T01:36:46.993Z,15.43
2018-02-12T01:39:14.561Z,20.73
2018-02-12T01:41:42.455Z,18.70
2018-02-12T01:44:10.023Z,18.17
2018-02-12T01:46:37.590Z,22.00
2018-02-12T01:49:05.379Z,27.30
2018-02-12T01:51:32.963Z,23.30
2018-02-12T01:54:01.355Z,25.20
2018-02-12T01:56:29.011Z,25.80
2018-02-12T01:58:56.591Z,30.90
2018-02-12T02:01:24.152Z,34.67
2018-02-12T02:03:52.117Z,30.23
2018-02-12T02:06:19.706Z,33.53
2018-02-12T02:08:48.035Z,32.97
2018-02-12T02:11:15.655Z,28.83
2018-02-12T02:13:43.987Z,35.27
2018-02-12T02:16:11.641Z,28.50
2018-02-12T02:18:39.246Z,21.67
2018-02-12T02:21:06.802Z,29.87
2018-02-12T02:23:34.385Z,26.10
2018-02-12T02:26:01.937Z,26.90
2018-02-12T02:28:30.270Z,24.23
2018-02-12T02:30:58.135Z,32.70
2018-02-12T02:33:25.688Z,36.47
2018-02-12T02:35:53.233Z,38.73
2018-02-12T02:38:20.839Z,44.30
2018-02-12T02:40:49.172Z,39.80
2018-02-12T02:43:16.745Z,31.80
2018-02-12T02:45:44.616Z,34.20
2018-02-12T02:48:12.187Z,33.30
2018-02-12T02:50:39.753Z,30.93
2018-02-12T02:53:07.700Z,37.10
2018-02-12T02:55:35.288Z,33.53
2018-02-12T02:58:03.641Z,28.53
2018-02-12T03:00:31.234Z,35.20
2018-02-12T03:02:59.869Z,31.30
2018-02-12T03:05:27.440Z,27.57
2018-02-12T03:07:55.800Z,28.47
2018-02-12T03:10:23.684Z,18.40
2018-02-12T03:12:51.248Z,19.47
2018-02-12T03:15:20.581Z,15.00
2018-02-12T03:17:48.957Z,15.73
2018-02-12T03:20:17.853Z,17.40
2018-02-12T03:22:46.175Z,21.87
2018-02-12T03:25:14.158Z,13.40
2018-02-12T03:27:41.719Z,18.53
2018-02-12T03:30:09.340Z,12.87
2018-02-12T03:32:37.223Z,24.07
2018-02-12T03:35:04.782Z,16.90
2018-02-12T03:37:32.349Z,19.10
2018-02-12T03:40:00.220Z,12.63
2018-02-12T03:42:27.783Z,15.53
2018-02-12T03:44:55.349Z,16.97
2018-02-12T03:47:23.224Z,20.90
2018-02-12T03:49:50.808Z,14.00
2018-02-12T03:52:19.236Z,19.03
2018-02-12T03:54:46.900Z,15.10
2018-02-12T03:57:14.477Z,15.37
2018-02-12T03:59:43.904Z,17.13
2018-02-12T04:02:12.329Z,20.93
2018-02-12T04:04:39.879Z,15.57
2018-02-12T04:07:07.778Z,20.87
2018-02-12T04:09:35.336Z,21.83
2018-02-12T04:12:02.906Z,24.97
2018-02-12T04:14:32.282Z,19.07
2018-02-12T04:16:59.836Z,16.73
2018-02-12T04:19:27.460Z,22.17
2018-02-12T04:21:55.079Z,24.13
2018-02-12T04:24:22.640Z,18.23
2018-02-12T04:26:50.354Z,23.33
2018-02-12T04:29:17.909Z,16.30
2018-02-12T04:31:45.504Z,16.57
2018-02-12T04:34:13.067Z,18.50
2018-02-12T04:36:40.627Z,15.77
2018-02-12T04:39:08.483Z,27.27
2018-02-12T04:41:36.066Z,27.10
2018-02-12T04:44:04.799Z,10.63
2018-02-12T04:46:32.842Z,20.20
2018-02-12T04:49:01.174Z,17.80
2018-02-12T04:51:28.747Z,23.23
2018-02-12T04:53:58.129Z,22.80
2018-02-12T04:56:25.678Z,20.13
2018-02-12T04:58:53.256Z,21.73
2018-02-12T05:01:21.159Z,21.43
2018-02-12T05:03:49.536Z,16.83
2018-02-12T05:06:17.861Z,29.13
2018-02-12T05:08:45.485Z,17.97
2018-02-12T05:11:13.083Z,21.13
2018-02-12T05:13:40.662Z,15.43
2018-02-12T05:16:08.321Z,21.33
2018-02-12T05:18:35.917Z,18.17
2018-02-12T05:21:04.240Z,18.77
2018-02-12T05:23:31.835Z,19.83
2018-02-12T05:26:00.214Z,20.03
2018-02-12T05:28:28.674Z,19.60
2018-02-12T05:30:56.259Z,16.73
2018-02-12T05:33:24.638Z,19.17
2018-02-12T05:35:52.991Z,20.07
2018-02-12T05:38:20.704Z,22.03
2018-02-12T05:40:48.606Z,13.17
2018-02-12T05:43:16.214Z,28.03
2018-02-12T05:45:44.549Z,17.57
2018-02-12T05:48:12.505Z,11.20
2018-02-12T05:50:40.069Z,21.33
2018-02-12T05:53:07.656Z,18.97
2018-02-12T05:55:36.315Z,11.97
2018-02-12T05:58:03.878Z,21.73
2018-02-12T06:00:31.428Z,14.40
2018-02-12T06:02:59.399Z,13.23
2018-02-12T06:05:26.964Z,12.30
2018-02-12T06:07:54.537Z,22.97
2018-02-12T06:10:22.900Z,19.40
2018-02-12T06:12:50.443Z,16.87
2018-02-12T06:15:18.013Z,20.47
2018-02-12T06:17:45.616Z,17.13
2018-02-12T06:20:13.219Z,13.90
2018-02-12T06:22:40.788Z,22.23
2018-02-12T06:25:08.652Z,15.87
2018-02-12T06:27:36.192Z,17.03
2018-02-12T06:30:03.743Z,12.27
2018-02-12T06:32:31.650Z,19.27
2018-02-12T06:34:59.264Z,19.50
2018-02-12T06:37:26.819Z,6.93
2018-02-12T06:39:54.722Z,14.17
2018-02-12T06:42:22.280Z,11.50
2018-02-12T06:44:49.854Z,12.27
2018-02-12T06:47:17.469Z,11.00
2018-02-12T06:49:45.065Z,13.90
2018-02-12T06:52:12.617Z,14.00
2018-02-12T06:54:40.215Z,11.83
2018-02-12T06:57:08.606Z,15.00
2018-02-12T06:59:36.941Z,10.77
2018-02-12T07:02:04.506Z,10.20
2018-02-12T07:04:32.454Z,10.93
2018-02-12T07:07:00.018Z,8.53
2018-02-12T07:09:27.589Z,19.00
2018-02-12T07:11:56.602Z,11.10
2018-02-12T07:14:24.953Z,12.03
2018-02-12T07:16:52.504Z,9.80
2018-02-12T07:19:20.263Z,6.90
2018-02-12T07:21:47.832Z,12.90
2018-02-12T07:24:15.384Z,8.40
2018-02-12T07:26:43.336Z,5.50
2018-02-12T07:29:10.875Z,3.83
2018-02-12T07:31:39.263Z,12.03
2018-02-12T07:34:07.162Z,9.57
2018-02-12T07:36:34.719Z,7.30
2018-02-12T07:39:02.272Z,7.57
2018-02-12T07:41:30.231Z,4.90
2018-02-12T07:43:57.783Z,7.67
2018-02-12T07:46:25.339Z,6.87
2018-02-12T07:48:53.208Z,5.37
2018-02-12T07:51:20.759Z,5.80
2018-02-12T07:53:48.407Z,5.10
2018-02-12T07:56:16.308Z,5.73
2018-02-12T07:58:43.863Z,5.80
2018-02-12T08:01:11.429Z,6.23
2018-02-12T08:03:39.021Z,8.70
2018-02-12T08:06:07.367Z,4.97
2018-02-12T08:08:34.916Z,9.30
2018-02-12T08:11:02.884Z,8.50
2018-02-12T08:13:30.458Z,14.77
2018-02-12T08:15:58.004Z,5.50
2018-02-12T08:18:25.598Z,13.27
2018-02-12T08:20:53.956Z,7.47
2018-02-12T08:23:21.530Z,18.53
2018-02-12T08:25:49.885Z,6.73
2018-02-12T08:28:17.445Z,11.20
2018-02-12T08:30:45.051Z,10.73
2018-02-12T08:33:12.613Z,18.47
2018-02-12T08:35:40.825Z,15.53
2018-02-12T08:38:08.404Z,5.57
2018-02-12T08:40:35.972Z,11.33
2018-02-12T08:43:04.621Z,14.57
2018-02-12T08:45:32.168Z,8.80
2018-02-12T08:47:59.732Z,13.83
2018-02-12T08:50:27.616Z,14.13
2018-02-12T08:52:55.169Z,16.43
2018-02-12T08:55:24.681Z,20.90
2018-02-12T08:57:52.628Z,15.80
2018-02-12T09:00:20.176Z,15.73
2018-02-12T09:02:47.728Z,9.70
2018-02-12T09:05:15.620Z,11.13
2018-02-12T09:07:43.164Z,8.10
2018-02-12T09:10:10.718Z,10.07
2018-02-12T09:12:38.816Z,9.70
2018-02-12T09:15:06.372Z,6.70
2018-02-12T09:17:33.944Z,10.80
2018-02-12T09:20:02.093Z,8.27
2018-02-12T09:22:29.647Z,14.40
2018-02-12T09:24:57.224Z,14.33
2018-02-12T09:27:25.092Z,12.73
2018-02-12T09:29:53.446Z,12.13
2018-02-12T09:32:20.983Z,11.50
2018-02-12T09:34:48.887Z,13.97
2018-02-12T09:37:16.516Z,11.77
2018-02-12T09:39:44.073Z,18.13
2018-02-12T09:42:11.957Z,7.93
2018-02-12T09:44:39.511Z,14.33
2018-02-12T09:47:07.082Z,13.60
2018-02-12T09:49:34.684Z,14.03
2018-02-12T09:52:03.362Z,12.00
2018-02-12T09:54:31.704Z,14.20
2018-02-12T09:56:59.262Z,8.37
2018-02-12T09:59:27.120Z,14.40
2018-02-12T10:01:54.686Z,13.63
2018-02-12T10:04:22.242Z,17.23
2018-02-12T10:06:50.117Z,14.30
2018-02-12T10:09:17.709Z,22.57
2018-02-12T10:11:46.159Z,11.23
2018-02-12T10:14:13.750Z,16.67
2018-02-12T10:16:42.047Z,15.73
2018-02-12T10:19:09.906Z,26.83
2018-02-12T10:21:37.703Z,13.90
2018-02-12T10:24:05.259Z,17.07
2018-02-12T10:26:32.963Z,20.77
2018-02-12T10:29:01.326Z,16.27
2018-02-12T10:31:28.880Z,6.97
2018-02-12T10:33:56.721Z,15.87
2018-02-12T10:36:24.341Z,23.43
2018-02-12T10:38:52.674Z,22.73
2018-02-12T10:41:20.257Z,17.10
2018-02-12T10:43:48.592Z,11.70
2018-02-12T10:46:16.188Z,14.57
2018-02-12T10:48:45.263Z,7.20
2018-02-12T10:51:12.818Z,14.83
2018-02-12T10:53:40.431Z,17.47
2018-02-12T10:56:08.009Z,12.47
2018-02-12T10:58:35.909Z,10.23
2018-02-12T11:01:03.473Z,22.47
2018-02-12T11:03:31.043Z,14.67
2018-02-12T11:05:59.653Z,15.93
2018-02-12T11:08:27.986Z,11.33
2018-02-12T11:10:55.542Z,13.57
2018-02-12T11:13:23.138Z,15.87
2018-02-12T11:15:51.464Z,14.93
2018-02-12T11:18:19.047Z,20.30
2018-02-12T11:20:46.652Z,12.63
2018-02-12T11:23:14.265Z,20.87
2018-02-12T11:25:41.887Z,14.73
2018-02-12T11:28:09.452Z,15.80
2018-02-12T11:30:37.050Z,11.27
2018-02-12T11:33:04.613Z,15.60
2018-02-12T11:35:32.200Z,14.50
2018-02-12T11:37:59.796Z,14.17
2018-02-12T11:40:27.443Z,13.07
2018-02-12T11:42:55.018Z,15.70
2018-02-12T11:45:23.416Z,19.70
2018-02-12T11:47:51.002Z,22.83
2018-02-12T11:50:19.287Z,16.27
2018-02-12T11:52:47.931Z,13.13
2018-02-12T11:55:15.477Z,13.20
2018-02-12T11:57:43.034Z,9.63
2018-02-12T12:00:10.640Z,8.30
2018-02-12T12:02:38.957Z,20.17
2018-02-12T12:05:06.557Z,12.33
2018-02-12T12:07:34.151Z,16.57
2018-02-12T12:10:01.702Z,9.00
2018-02-12T12:12:30.074Z,10.57
2018-02-12T12:14:58.678Z,6.57
2018-02-12T12:17:26.582Z,15.87
2018-02-12T12:19:54.139Z,11.00
2018-02-12T12:22:21.696Z,14.77
2018-02-12T12:24:49.290Z,15.53
2018-02-12T12:27:17.686Z,12.37
2018-02-12T12:29:46.047Z,13.57
2018-02-12T12:32:13.620Z,9.53
2018-02-12T12:34:41.984Z,9.97
2018-02-12T12:37:10.297Z,12.37
2018-02-12T12:39:38.188Z,10.47
2018-02-12T12:42:05.737Z,12.17
2018-02-12T12:44:33.289Z,9.77
2018-02-12T12:47:01.127Z,7.90
2018-02-12T12:49:29.450Z,14.03
2018-02-12T12:51:57.014Z,23.53
2018-02-12T12:54:24.655Z,6.50
2018-02-12T12:56:52.190Z,9.97
2018-02-12T12:59:19.799Z,16.23
2018-02-12T13:01:49.181Z,14.07
2018-02-12T13:04:16.736Z,11.77
2018-02-12T13:06:44.292Z,19.13
2018-02-12T13:09:12.186Z,15.30
2018-02-12T13:11:40.747Z,18.00
2018-02-12T13:14:08.307Z,3.03
2018-02-12T13:16:36.211Z,9.93
2018-02-12T13:19:04.541Z,7.83
2018-02-12T13:21:32.090Z,9.03
2018-02-12T13:23:59.982Z,10.60
2018-02-12T13:26:27.573Z,10.53
2018-02-12T13:28:55.128Z,10.43
2018-02-12T13:31:23.874Z,13.57
2018-02-12T13:33:51.433Z,6.47
2018-02-12T13:36:19.007Z,6.00
2018-02-12T13:38:46.875Z,7.93
2018-02-12T13:41:14.663Z,8.33
2018-02-12T13:43:42.228Z,9.87
2018-02-12T13:46:10.881Z,5.03
2018-02-12T13:48:38.443Z,16.00
2018-02-12T13:51:05.994Z,7.17
2018-02-12T13:53:33.869Z,19.53
2018-02-12T13:56:01.462Z,3.20
2018-02-12T13:58:29.793Z,9.40
2018-02-12T14:00:57.399Z,7.70
2018-02-12T14:03:25.726Z,6.70
2018-02-12T14:05:53.616Z,10.97
2018-02-12T14:08:21.181Z,6.93
2018-02-12T14:10:50.250Z,7.80
2018-02-12T14:13:18.084Z,11.53
2018-02-12T14:15:45.651Z,13.17
2018-02-12T14:18:13.220Z,8.63
2018-02-12T14:20:41.094Z,8.73
2018-02-12T14:23:08.743Z,9.20
2018-02-12T14:25:36.329Z,8.70
2018-02-12T14:28:05.007Z,11.53
2018-02-12T14:30:32.570Z,8.43
2018-02-12T14:33:00.138Z,11.47
2018-02-12T14:35:28.160Z,9.53
2018-02-12T14:37:55.723Z,6.63
2018-02-12T14:40:23.365Z,26.90
2018-02-12T14:42:51.269Z,15.73
2018-02-12T14:45:18.813Z,4.20
2018-02-12T14:47:46.338Z,6.93
2018-02-12T14:50:14.702Z,14.13
2018-02-12T14:52:43.044Z,6.67
2018-02-12T14:55:10.652Z,11.10
2018-02-12T14:57:38.204Z,9.40
2018-02-12T15:00:06.850Z,8.30
2018-02-12T15:02:35.202Z,13.43
2018-02-12T15:05:02.796Z,6.20
2018-02-12T15:07:32.182Z,8.90
2018-02-12T15:09:59.732Z,15.30
2018-02-12T15:12:27.284Z,8.13
2018-02-12T15:14:55.179Z,9.53
2018-02-12T15:17:24.238Z,12.70
2018-02-12T15:19:51.994Z,12.27
2018-02-12T15:22:19.893Z,16.57
2018-02-12T15:24:47.448Z,10.43
2018-02-12T15:27:14.998Z,10.90
2018-02-12T15:29:42.848Z,11.20
2018-02-12T15:32:10.400Z,8.13
2018-02-12T15:34:37.970Z,11.83
2018-02-12T15:37:05.597Z,11.80
2018-02-12T15:39:33.159Z,8.43
2018-02-12T15:42:02.291Z,11.90
2018-02-12T15:44:30.302Z,12.73
2018-02-12T15:46:57.979Z,10.77
2018-02-12T15:49:26.302Z,10.57
2018-02-12T15:51:53.923Z,13.00
2018-02-12T15:54:21.528Z,12.33
2018-02-12T15:56:49.120Z,13.40
2018-02-12T15:59:16.675Z,7.60
2018-02-12T16:01:44.266Z,16.83
2018-02-12T16:04:11.867Z,8.60
2018-02-12T16:06:39.423Z,14.03
2018-02-12T16:09:07.023Z,7.03
2018-02-12T16:11:35.360Z,12.00
2018-02-12T16:14:03.222Z,14.10
2018-02-12T16:16:30.793Z,5.47
2018-02-12T16:18:58.443Z,5.70
2018-02-12T16:21:26.519Z,5.37
2018-02-12T16:23:54.082Z,7.37
2018-02-12T16:26:21.645Z,9.70
2018-02-12T16:28:49.573Z,14.70
2018-02-12T16:31:17.136Z,9.70
2018-02-12T16:33:44.727Z,14.93
2018-02-12T16:36:12.490Z,7.87
2018-02-12T16:38:40.885Z,12.47
2018-02-12T16:41:08.450Z,14.53
2018-02-12T16:43:37.587Z,14.33
2018-02-12T16:46:05.143Z,10.80
2018-02-12T16:48:32.744Z,14.37
2018-02-12T16:51:00.309Z,11.23
2018-02-12T16:53:27.922Z,11.10
2018-02-12T16:55:55.523Z,15.03
2018-02-12T16:58:23.139Z,9.47
2018-02-12T17:00:50.722Z,9.33
2018-02-12T17:03:18.289Z,11.27
2018-02-12T17:05:45.885Z,8.17
2018-02-12T17:08:14.362Z,10.90
2018-02-12T17:10:42.723Z,11.20
2018-02-12T17:13:11.060Z,11.40
2018-02-12T17:15:39.230Z,5.70
2018-02-12T17:18:06.791Z,14.70
2018-02-12T17:20:34.848Z,24.10
2018-02-12T17:23:02.555Z,17.23
2018-02-12T17:25:30.126Z,20.50
2018-02-12T17:27:57.697Z,14.33
2018-02-12T17:30:26.377Z,9.23
2018-02-12T17:32:54.003Z,15.93
2018-02-12T17:35:22.411Z,15.20
2018-02-12T17:37:50.005Z,21.00
2018-02-12T17:40:17.576Z,19.37
2018-02-12T17:42:45.145Z,18.83
2018-02-12T17:45:12.992Z,17.33
2018-02-12T17:47:40.598Z,25.10
2018-02-12T17:50:08.145Z,24.33
2018-02-12T17:52:35.761Z,21.97
2018-02-12T17:55:03.303Z,21.87
2018-02-12T17:57:31.635Z,20.90
2018-02-12T17:59:59.494Z,17.70
2018-02-12T18:02:27.505Z,23.57
2018-02-12T18:04:55.056Z,38.50
2018-02-12T18:07:22.694Z,26.10
2018-02-12T18:09:50.260Z,20.43
2018-02-12T18:12:18.253Z,32.97
2018-02-12T18:14:45.805Z,23.03
2018-02-12T18:17:13.421Z,29.10
2018-02-12T18:19:41.282Z,21.13
2018-02-12T18:22:08.878Z,23.50
2018-02-12T18:24:37.974Z,22.17
2018-02-12T18:27:05.587Z,17.73
2018-02-12T18:29:33.447Z,25.33
2018-02-12T18:32:01.032Z,16.93
2018-02-12T18:34:28.596Z,18.90
2018-02-12T18:36:56.461Z,20.40
2018-02-12T18:39:24.039Z,24.90
2018-02-12T18:41:51.614Z,29.83
2018-02-12T18:44:20.320Z,24.50
2018-02-12T18:46:47.903Z,26.47
2018-02-12T18:49:15.471Z,28.37
2018-02-12T18:51:43.355Z,30.57
2018-02-12T18:54:10.927Z,36.90
2018-02-12T18:56:38.529Z,34.10
2018-02-12T18:59:06.126Z,35.30
2018-02-12T19:01:33.711Z,33.90
2018-02-12T19:04:01.656Z,36.50
2018-02-12T19:06:29.501Z,34.93
2018-02-12T19:08:57.536Z,35.63
2018-02-12T19:11:26.176Z,38.90
2018-02-12T19:13:53.737Z,35.73
2018-02-12T19:16:21.291Z,31.87
2018-02-12T19:18:49.152Z,31.00
2018-02-12T19:21:16.747Z,30.40
2018-02-12T19:23:44.313Z,23.80
2018-02-12T19:26:12.663Z,20.60
2018-02-12T19:28:40.238Z,27.47
2018-02-12T19:31:07.822Z,26.70
2018-02-12T19:33:36.150Z,25.67
2018-02-12T19:36:04.392Z,43.57
2018-02-12T19:38:31.995Z,37.50
2018-02-12T19:40:59.610Z,31.80
2018-02-12T19:43:27.429Z,24.10
2018-02-12T19:45:54.996Z,29.33
2018-02-12T19:48:23.344Z,20.47
2018-02-12T19:50:51.259Z,30.43
2018-02-12T19:53:19.606Z,26.80
2018-02-12T19:55:48.691Z,27.37
2018-02-12T19:58:16.653Z,32.77
2018-02-12T20:00:44.227Z,32.20
2018-02-12T20:03:11.796Z,35.17
2018-02-12T20:05:39.738Z,24.13
2018-02-12T20:08:08.046Z,32.07
2018-02-12T20:10:36.388Z,21.77
2018-02-12T20:13:04.265Z,28.67
2018-02-12T20:15:32.679Z,20.00
2018-02-12T20:18:01.025Z,26.10
2018-02-12T20:20:29.298Z,20.33
2018-02-12T20:22:56.876Z,28.27
2018-02-12T20:25:25.249Z,17.90
2018-02-12T20:27:53.115Z,21.03
2018-02-12T20:30:20.681Z,23.40
2018-02-12T20:32:49.023Z,20.07
2018-02-12T20:35:17.141Z,28.53
2018-02-12T20:37:45.472Z,22.30
2018-02-12T20:40:13.038Z,26.80
2018-02-12T20:42:40.665Z,19.77
2018-02-12T20:45:08.239Z,21.87
2018-02-12T20:47:36.107Z,26.23
2018-02-12T20:50:03.656Z,26.10
2018-02-12T20:52:31.223Z,22.67
2018-02-12T20:54:59.120Z,19.90
2018-02-12T20:57:27.447Z,16.93
2018-02-12T20:59:55.005Z,16.23
2018-02-12T21:02:22.613Z,15.50
2018-02-12T21:04:50.553Z,17.57
2018-02-12T21:07:18.128Z,21.10
2018-02-12T21:09:45.684Z,17.63
2018-02-12T21:12:15.087Z,28.33
2018-02-12T21:14:42.645Z,23.00
2018-02-12T21:17:10.203Z,21.70
2018-02-12T21:19:38.038Z,14.97
2018-02-12T21:22:05.632Z,16.33
2018-02-12T21:24:33.226Z,28.93
2018-02-12T21:27:02.178Z,17.50
2018-02-12T21:29:29.738Z,19.07
2018-02-12T21:31:57.312Z,25.90
2018-02-12T21:34:25.976Z,21.77
2018-02-12T21:36:53.544Z,15.43
2018-02-12T21:39:21.103Z,27.73
2018-02-12T21:41:48.707Z,14.50
2018-02-12T21:44:16.328Z,11.83
2018-02-12T21:46:43.890Z,20.67
2018-02-12T21:49:11.507Z,20.67
2018-02-12T21:51:39.077Z,17.43
2018-02-12T21:54:06.678Z,15.87
2018-02-12T21:56:35.027Z,24.93
2018-02-12T21:59:02.616Z,22.80
2018-02-12T22:01:30.174Z,19.70
2018-02-12T22:03:58.524Z,21.20
2018-02-12T22:06:26.482Z,34.47
2018-02-12T22:08:54.084Z,19.17
2018-02-12T22:11:22.398Z,23.90
2018-02-12T22:13:50.027Z,26.20
2018-02-12T22:16:18.441Z,21.27
2018-02-12T22:18:46.058Z,22.67
2018-02-12T22:21:14.399Z,20.93
2018-02-12T22:23:41.999Z,26.43
2018-02-12T22:26:10.617Z,28.47
2018-02-12T22:28:38.345Z,22.00
2018-02-12T22:31:06.810Z,20.27
2018-02-12T22:33:34.400Z,23.97
2018-02-12T22:36:02.003Z,22.27
2018-02-12T22:38:29.598Z,32.67
2018-02-12T22:40:57.934Z,15.70
2018-02-12T22:43:25.514Z,20.50
2018-02-12T22:45:53.094Z,18.63
2018-02-12T22:48:21.543Z,17.57
2018-02-12T22:50:49.172Z,21.10
2018-02-12T22:53:16.757Z,27.13
2018-02-12T22:55:44.347Z,24.30
2018-02-12T22:58:12.678Z,21.80
2018-02-12T23:00:40.267Z,25.77
2018-02-12T23:03:07.887Z,21.17
2018-02-12T23:05:35.438Z,21.27
2018-02-12T23:08:03.008Z,24.57
2018-02-12T23:10:30.613Z,24.27
2018-02-12T23:12:58.950Z,26.40
2018-02-12T23:15:32.394Z,16.93
2018-02-12T23:18:00.796Z,29.17
2018-02-12T23:20:28.385Z,17.90
2018-02-12T23:22:55.996Z,23.90
2018-02-12T23:25:24.354Z,20.60
2018-02-12T23:27:51.940Z,32.93
2018-02-12T23:30:20.274Z,19.83
2018-02-12T23:32:47.837Z,18.23
2018-02-12T23:35:15.526Z,27.63
2018-02-12T23:37:43.875Z,27.23
2018-02-12T23:40:12.395Z,22.60
2018-02-12T23:42:40.833Z,30.27
2018-02-12T23:45:08.384Z,15.63
2018-02-12T23:47:36.469Z,18.17
2018-02-12T23:50:04.036Z,21.47
2018-02-12T23:52:31.723Z,16.03
2018-02-12T23:55:00.301Z,20.13
2018-02-12T23:57:28.886Z,27.27
2018-02-12T23:59:57.493Z,20.67
